createdAt,value
2018-06-14T00:00:19.010Z,8.05
2018-06-14T00:02:49.432Z,8.00
2018-06-14T00:05:19.813Z,7.72
2018-06-14T00:07:50.242Z,6.53
2018-06-14T00:10:20.589Z,8.18
2018-06-14T00:12:50.904Z,7.78
2018-06-14T00:15:21.313Z,8.93
2018-06-14T00:17:51.789Z,9.45
2018-06-14T00:20:22.292Z,12.10
2018-06-14T00:22:52.746Z,8.73
2018-06-14T00:25:23.248Z,12.13
2018-06-14T00:27:53.795Z,10.78
2018-06-14T00:30:24.300Z,9.35
2018-06-14T00:32:54.729Z,9.50
2018-06-14T00:35:25.200Z,8.73
2018-06-14T00:37:55.547Z,9.10
2018-06-14T00:40:26.029Z,8.73
2018-06-14T00:42:56.438Z,9.08
2018-06-14T00:45:26.934Z,7.78
2018-06-14T00:47:57.410Z,8.15
2018-06-14T00:50:27.956Z,7.83
2018-06-14T00:52:58.453Z,8.08
2018-06-14T00:55:29.089Z,8.70
2018-06-14T00:57:59.568Z,12.63
2018-06-14T01:00:29.987Z,8.35
2018-06-14T01:03:00.360Z,8.25
2018-06-14T01:05:30.823Z,11.35
2018-06-14T01:08:01.284Z,10.08
2018-06-14T01:10:31.727Z,7.72
2018-06-14T01:13:02.154Z,10.00
2018-06-14T01:15:32.656Z,8.58
2018-06-14T01:18:03.136Z,12.43
2018-06-14T01:20:33.639Z,8.05
2018-06-14T01:23:04.105Z,10.38
2018-06-14T01:25:34.583Z,9.88
2018-06-14T01:28:04.981Z,8.53
2018-06-14T01:30:35.383Z,10.10
2018-06-14T01:33:05.859Z,8.43
2018-06-14T01:35:36.311Z,7.97
2018-06-14T01:38:27.781Z,9.35
2018-06-14T01:40:58.243Z,8.38
2018-06-14T01:43:28.736Z,8.30
2018-06-14T01:45:59.114Z,10.85
2018-06-14T01:48:29.610Z,8.10
2018-06-14T01:51:00.061Z,8.73
2018-06-14T01:53:30.428Z,9.28
2018-06-14T01:56:00.859Z,7.95
2018-06-14T01:58:31.229Z,11.88
2018-06-14T02:01:02.002Z,12.47
2018-06-14T02:03:32.393Z,11.28
2018-06-14T02:06:02.814Z,10.78
2018-06-14T02:08:33.229Z,9.70
2018-06-14T02:11:03.670Z,10.65
2018-06-14T02:13:34.038Z,11.65
2018-06-14T02:16:04.480Z,8.58
2018-06-14T02:18:34.908Z,7.80
2018-06-14T02:21:05.295Z,9.13
2018-06-14T02:23:35.808Z,8.30
2018-06-14T02:26:07.242Z,7.83
2018-06-14T02:28:38.235Z,9.70
2018-06-14T02:31:08.891Z,8.70
2018-06-14T02:33:39.242Z,9.03
2018-06-14T02:36:09.750Z,8.18
2018-06-14T02:38:40.170Z,10.30
2018-06-14T02:41:10.600Z,24.57
2018-06-14T02:43:41.093Z,14.40
2018-06-14T02:46:12.038Z,9.98
2018-06-14T02:48:42.403Z,14.75
2018-06-14T02:51:12.802Z,10.28
2018-06-14T02:53:43.281Z,13.48
2018-06-14T02:56:13.687Z,9.05
2018-06-14T02:58:44.115Z,9.80
2018-06-14T03:01:14.452Z,10.45
2018-06-14T03:03:44.881Z,14.80
2018-06-14T03:06:15.372Z,7.55
2018-06-14T03:08:45.745Z,10.60
2018-06-14T03:11:16.167Z,13.30
2018-06-14T03:13:46.586Z,8.53
2018-06-14T03:16:17.031Z,9.98
2018-06-14T03:18:47.405Z,10.53
2018-06-14T03:21:17.757Z,9.95
2018-06-14T03:23:48.238Z,9.10
2018-06-14T03:26:18.655Z,11.78
2018-06-14T03:28:49.078Z,12.20
2018-06-14T03:31:19.443Z,9.78
2018-06-14T03:33:49.873Z,9.93
2018-06-14T03:36:20.370Z,9.20
2018-06-14T03:38:50.887Z,13.30
2018-06-14T03:41:21.225Z,13.10
2018-06-14T03:43:51.699Z,10.63
2018-06-14T03:46:22.177Z,9.75
2018-06-14T03:48:52.528Z,11.30
2018-06-14T03:51:22.962Z,14.10
2018-06-14T03:53:53.566Z,12.88
2018-06-14T03:56:23.975Z,15.05
2018-06-14T03:58:54.462Z,12.90
2018-06-14T04:01:24.902Z,11.38
2018-06-14T04:03:55.337Z,10.58
2018-06-14T04:06:25.744Z,11.88
2018-06-14T04:08:56.177Z,19.57
2018-06-14T04:11:26.544Z,11.55
2018-06-14T04:13:56.659Z,11.20
2018-06-14T04:16:26.964Z,10.45
2018-06-14T04:18:57.459Z,14.23
2018-06-14T04:21:27.894Z,15.60
2018-06-14T04:23:58.337Z,13.62
2018-06-14T04:26:28.872Z,14.65
2018-06-14T04:28:59.231Z,14.30
2018-06-14T04:31:29.686Z,12.47
2018-06-14T04:34:00.231Z,16.17
2018-06-14T04:36:30.566Z,12.18
2018-06-14T04:39:00.972Z,13.65
2018-06-14T04:41:31.483Z,11.18
2018-06-14T04:44:01.849Z,11.80
2018-06-14T04:46:32.196Z,12.03
2018-06-14T04:49:02.625Z,13.32
2018-06-14T04:51:37.106Z,11.80
2018-06-14T04:54:07.470Z,12.85
2018-06-14T04:56:37.912Z,17.70
2018-06-14T04:59:09.143Z,15.20
2018-06-14T05:01:39.568Z,11.25
2018-06-14T05:04:10.008Z,10.98
2018-06-14T05:06:40.340Z,25.68
2018-06-14T05:09:13.264Z,17.15
2018-06-14T05:11:43.612Z,11.25
2018-06-14T05:14:14.065Z,13.68
2018-06-14T05:16:44.528Z,14.07
2018-06-14T05:19:14.880Z,15.32
2018-06-14T05:21:45.240Z,13.20
2018-06-14T05:24:15.684Z,14.05
2018-06-14T05:26:46.073Z,13.90
2018-06-14T05:29:16.524Z,12.20
2018-06-14T05:31:46.926Z,15.58
2018-06-14T05:34:17.387Z,15.08
2018-06-14T05:36:47.841Z,17.02
2018-06-14T05:39:18.293Z,12.93
2018-06-14T05:41:48.706Z,11.95
2018-06-14T05:44:19.101Z,12.90
2018-06-14T05:46:49.249Z,22.22
2018-06-14T05:49:19.657Z,15.63
2018-06-14T05:51:50.065Z,13.10
2018-06-14T05:54:20.512Z,12.85
2018-06-14T05:56:50.909Z,15.25
2018-06-14T05:59:21.358Z,22.25
2018-06-14T06:01:51.776Z,15.72
2018-06-14T06:04:22.185Z,13.93
2018-06-14T06:06:53.397Z,17.87
2018-06-14T06:09:23.812Z,16.48
2018-06-14T06:11:54.228Z,16.32
2018-06-14T06:14:24.684Z,14.63
2018-06-14T06:16:55.062Z,11.70
2018-06-14T06:19:25.635Z,13.38
2018-06-14T06:21:55.987Z,16.00
2018-06-14T06:24:26.498Z,12.33
2018-06-14T10:03:44.228Z,4.60
2018-06-14T10:06:16.638Z,5.25
2018-06-14T10:08:48.992Z,6.05
2018-06-14T10:11:20.777Z,4.37
2018-06-14T10:13:52.394Z,5.72
2018-06-14T10:16:24.389Z,5.10
2018-06-14T10:18:55.468Z,6.67
2018-06-14T10:21:25.916Z,6.67
2018-06-14T10:23:56.442Z,3.70
2018-06-14T10:26:26.727Z,8.00
2018-06-14T10:28:57.095Z,5.25
2018-06-14T10:31:28.123Z,5.10
2018-06-14T10:33:58.496Z,5.97
2018-06-14T10:36:30.014Z,3.12
2018-06-14T10:39:00.504Z,5.03
2018-06-14T10:41:30.930Z,3.50
2018-06-14T10:44:01.242Z,4.30
2018-06-14T10:46:32.281Z,4.08
2018-06-14T10:49:02.732Z,4.47
2018-06-14T10:51:34.136Z,5.60
2018-06-14T10:54:04.604Z,4.60
2018-06-14T10:56:35.122Z,5.28
2018-06-14T10:59:05.611Z,3.95
2018-06-14T11:01:36.859Z,3.52
2018-06-14T11:04:07.417Z,3.70
2018-06-14T11:06:37.861Z,3.60
2018-06-14T11:09:10.978Z,4.37
2018-06-14T11:11:43.295Z,6.10
2018-06-14T11:14:13.838Z,4.50
2018-06-14T11:16:44.433Z,4.45
2018-06-14T11:19:14.899Z,3.67
2018-06-14T11:21:46.475Z,3.40
2018-06-14T11:24:16.932Z,3.37
2018-06-14T11:26:47.920Z,4.10
2018-06-14T11:29:18.599Z,4.15
2018-06-14T11:31:49.794Z,3.75
2018-06-14T11:34:20.286Z,3.52
2018-06-14T11:36:50.394Z,3.00
2018-06-14T11:39:20.885Z,5.80
2018-06-14T11:41:51.491Z,5.03
2018-06-14T11:44:25.253Z,8.83
2018-06-14T11:46:56.395Z,3.67
2018-06-14T11:49:26.840Z,3.75
2018-06-14T11:51:57.300Z,4.47
2018-06-14T11:54:29.407Z,6.05
2018-06-14T11:56:59.942Z,4.00
2018-06-14T11:59:30.375Z,3.52
2018-06-14T12:02:01.496Z,5.35
2018-06-14T12:04:31.898Z,4.47
2018-06-14T12:07:02.296Z,4.10
2018-06-14T12:09:32.890Z,4.28
2018-06-14T12:12:03.707Z,4.20
2018-06-14T12:14:34.392Z,3.70
2018-06-14T12:17:04.857Z,3.80
2018-06-14T12:19:35.999Z,3.92
2018-06-14T12:22:07.005Z,3.45
2018-06-14T12:24:38.997Z,4.92
2018-06-14T12:27:11.074Z,4.37
2018-06-14T12:29:41.544Z,4.33
2018-06-14T12:32:11.810Z,4.30
2018-06-14T12:34:42.382Z,5.62
2018-06-14T12:37:13.593Z,4.47
2018-06-14T12:39:44.345Z,4.25
2018-06-14T12:42:15.814Z,3.33
2018-06-14T12:44:46.728Z,4.22
2018-06-14T12:47:18.637Z,6.17
2018-06-14T12:49:49.771Z,6.15
2018-06-14T12:52:22.003Z,16.02
2018-06-14T12:54:52.830Z,4.60
2018-06-14T12:57:27.209Z,8.18
2018-06-14T12:59:57.838Z,6.25
2018-06-14T13:02:29.261Z,5.47
2018-06-14T13:04:59.892Z,6.15
2018-06-14T13:07:30.356Z,4.67
2018-06-14T13:10:03.585Z,5.72
2018-06-14T13:12:34.412Z,5.83
2018-06-14T13:15:04.887Z,5.90
2018-06-14T13:17:35.252Z,5.33
2018-06-14T13:20:05.735Z,4.67
2018-06-14T13:22:36.160Z,6.92
2018-06-14T13:25:06.547Z,5.35
2018-06-14T13:27:37.072Z,6.35
2018-06-14T13:30:08.388Z,5.50
2018-06-14T13:32:38.760Z,4.55
2018-06-14T13:35:10.954Z,4.35
2018-06-14T13:37:42.341Z,5.92
2018-06-14T13:40:14.488Z,4.00
2018-06-14T13:42:45.073Z,6.42
2018-06-14T13:45:15.901Z,9.73
2018-06-14T13:47:48.221Z,4.87
2018-06-14T13:50:21.544Z,5.37
2018-06-14T13:52:51.957Z,3.80
2018-06-14T13:55:23.203Z,7.33
2018-06-14T13:57:53.799Z,4.95
2018-06-14T14:00:24.119Z,9.03
2018-06-14T14:02:54.530Z,4.72
2018-06-14T14:05:25.185Z,4.50
2018-06-14T14:07:56.343Z,4.10
2018-06-14T14:10:29.413Z,4.58
2018-06-14T14:13:06.302Z,4.05
2018-06-14T14:15:40.774Z,5.10
2018-06-14T14:18:12.763Z,4.58
2018-06-14T14:20:45.222Z,4.95
2018-06-14T14:23:18.358Z,5.90
2018-06-14T14:25:49.337Z,4.87
2018-06-14T14:28:22.021Z,4.83
2018-06-14T14:30:54.589Z,6.67
2018-06-14T14:33:25.642Z,6.65
2018-06-14T14:35:59.534Z,6.55
2018-06-14T14:38:32.722Z,5.20
2018-06-14T14:41:05.393Z,5.00
2018-06-14T14:43:48.312Z,5.78
2018-06-14T14:46:19.990Z,5.03
2018-06-14T14:48:52.363Z,4.90
2018-06-14T14:51:25.694Z,4.53
2018-06-14T14:53:58.176Z,5.97
2018-06-14T14:56:52.169Z,6.35
2018-06-14T14:59:29.583Z,4.67
2018-06-14T15:02:01.151Z,4.55
2018-06-14T15:04:41.297Z,5.90
2018-06-14T15:07:13.313Z,4.70
2018-06-14T15:09:44.662Z,6.65
2018-06-14T15:12:17.189Z,5.50
2018-06-14T15:14:49.077Z,5.70
2018-06-14T15:17:20.792Z,4.78
2018-06-14T15:19:53.596Z,4.22
2018-06-14T15:22:26.350Z,5.70
2018-06-14T15:24:57.652Z,4.87
2018-06-14T15:27:31.708Z,5.47
2018-06-14T15:30:04.747Z,4.60
2018-06-14T15:32:37.221Z,6.90
2018-06-14T15:35:10.037Z,12.33
2018-06-14T15:37:41.352Z,5.58
2018-06-14T15:40:12.847Z,5.75
2018-06-14T15:42:45.785Z,4.37
2018-06-14T15:45:18.453Z,5.85
2018-06-14T15:47:51.064Z,4.58
2018-06-14T15:50:23.390Z,4.35
2018-06-14T15:52:56.021Z,5.87
2018-06-14T15:56:37.704Z,4.67
2018-06-14T15:59:12.475Z,7.28
2018-06-14T16:01:44.253Z,5.10
2018-06-14T16:04:17.213Z,4.90
2018-06-14T16:06:51.008Z,4.30
2018-06-14T16:09:30.201Z,4.87
2018-06-14T16:12:04.431Z,6.37
2018-06-14T16:14:37.592Z,5.35
2018-06-14T16:17:09.299Z,6.25
2018-06-14T16:19:47.102Z,5.20
2018-06-14T16:22:19.556Z,4.55
2018-06-14T16:24:51.872Z,8.78
2018-06-14T16:27:24.701Z,5.87
2018-06-14T16:29:57.125Z,4.78
2018-06-14T16:32:29.084Z,5.25
2018-06-14T16:35:01.783Z,5.17
2018-06-14T16:37:33.581Z,5.72
2018-06-14T16:40:06.918Z,5.25
2018-06-14T16:42:37.657Z,5.78
2018-06-14T16:45:09.875Z,5.15
2018-06-14T16:47:41.338Z,5.00
2018-06-14T16:50:13.248Z,4.95
2018-06-14T16:52:43.410Z,6.20
2018-06-14T16:55:13.764Z,6.25
2018-06-14T16:57:44.974Z,5.78
2018-06-14T17:00:15.474Z,7.03
2018-06-14T17:02:45.665Z,6.72
2018-06-14T17:05:16.651Z,7.78
2018-06-14T17:07:46.993Z,4.45
2018-06-14T17:10:18.324Z,6.75
2018-06-14T17:12:48.752Z,7.62
2018-06-14T17:15:19.252Z,4.53
2018-06-14T17:17:49.679Z,24.32
2018-06-14T17:20:20.140Z,8.45
2018-06-14T17:22:50.661Z,6.37
2018-06-14T17:25:21.174Z,7.03
2018-06-14T17:27:51.879Z,6.83
2018-06-14T17:30:22.486Z,4.95
2018-06-14T17:32:53.077Z,6.40
2018-06-14T17:35:24.173Z,5.25
2018-06-14T17:37:55.096Z,7.12
2018-06-14T17:40:26.912Z,6.08
2018-06-14T17:42:57.385Z,5.30
2018-06-14T17:45:27.719Z,8.43
2018-06-14T17:47:58.181Z,5.10
2018-06-14T17:50:28.689Z,12.70
2018-06-14T17:52:59.954Z,4.60
2018-06-14T17:55:30.473Z,4.28
2018-06-14T17:58:00.936Z,4.90
2018-06-14T18:00:31.936Z,4.65
2018-06-14T18:03:02.923Z,5.45
2018-06-14T18:05:33.478Z,10.90
2018-06-14T18:08:03.985Z,10.30
2018-06-14T18:10:34.395Z,6.10
2018-06-14T18:13:04.981Z,5.00
2018-06-14T18:15:35.446Z,5.85
2018-06-14T18:18:05.975Z,4.47
2018-06-14T18:20:36.488Z,6.05
2018-06-14T18:23:06.984Z,5.30
2018-06-14T18:25:38.170Z,4.90
2018-06-14T18:28:08.779Z,5.15
2018-06-14T18:30:44.476Z,5.67
2018-06-14T18:33:23.961Z,4.53
2018-06-14T18:35:56.737Z,4.22
2018-06-14T18:38:29.731Z,6.00
2018-06-14T18:41:04.651Z,5.30
2018-06-14T18:43:35.077Z,4.87
2018-06-14T18:46:05.783Z,4.45
2018-06-14T18:48:37.054Z,5.92
2018-06-14T18:51:08.315Z,6.20
2018-06-14T18:53:38.601Z,7.47
2018-06-14T18:56:08.902Z,4.75
2018-06-14T18:58:39.312Z,4.83
2018-06-14T19:01:09.833Z,5.42
2018-06-14T19:03:40.335Z,5.37
2018-06-14T19:06:10.782Z,5.08
2018-06-14T19:08:41.186Z,5.10
2018-06-14T19:11:12.037Z,5.30
2018-06-14T19:13:42.547Z,7.55
2018-06-14T19:16:13.331Z,4.50
2018-06-14T19:18:43.807Z,5.80
2018-06-14T19:21:14.253Z,6.87
2018-06-14T19:23:44.680Z,5.20
2018-06-14T19:26:15.205Z,6.65
2018-06-14T19:28:45.668Z,6.75
2018-06-14T19:31:16.216Z,6.08
2018-06-14T19:33:47.227Z,5.62
2018-06-14T19:36:17.711Z,7.37
2018-06-14T19:38:48.240Z,8.63
2018-06-14T19:41:18.696Z,5.40
2018-06-14T19:43:54.096Z,4.92
2018-06-14T19:46:24.255Z,7.12
2018-06-14T19:48:54.596Z,6.55
2018-06-14T19:51:25.009Z,7.00
2018-06-14T19:53:55.416Z,6.20
2018-06-14T19:56:25.840Z,11.20
2018-06-14T19:58:56.238Z,6.25
2018-06-14T20:01:27.018Z,10.13
2018-06-14T20:03:58.412Z,6.78
2018-06-14T20:06:29.877Z,6.37
2018-06-14T20:09:00.437Z,6.30
2018-06-14T20:11:31.320Z,8.15
2018-06-14T20:14:01.910Z,10.75
2018-06-14T20:16:34.842Z,6.33
2018-06-14T20:19:05.417Z,8.28
2018-06-14T20:21:36.174Z,11.08
2018-06-14T20:24:07.327Z,10.18
2018-06-14T20:26:38.021Z,10.55
2018-06-14T20:29:08.481Z,6.67
2018-06-14T20:31:39.433Z,6.95
2018-06-14T20:34:10.606Z,7.87
2018-06-14T20:36:41.036Z,6.62
2018-06-14T20:39:12.699Z,8.93
2018-06-14T20:41:44.487Z,8.10
2018-06-14T20:44:15.180Z,13.60
2018-06-14T20:46:45.700Z,9.90
2018-06-14T20:49:16.256Z,8.48
2018-06-14T20:51:46.812Z,10.10
2018-06-14T20:54:17.395Z,9.48
2018-06-14T20:56:47.934Z,8.58
2018-06-14T20:59:18.348Z,8.78
2018-06-14T21:01:48.899Z,10.65
2018-06-14T21:04:20.156Z,7.80
2018-06-14T21:06:50.853Z,8.70
2018-06-14T21:09:21.280Z,13.65
2018-06-14T21:11:51.766Z,9.35
2018-06-14T21:14:22.285Z,9.63
2018-06-14T21:16:53.590Z,9.05
2018-06-14T21:19:24.084Z,8.80
2018-06-14T21:21:54.478Z,12.58
2018-06-14T21:24:24.865Z,8.18
2018-06-14T21:26:55.232Z,8.40
2018-06-14T21:29:25.687Z,11.38
2018-06-14T21:31:56.272Z,9.93
2018-06-14T21:34:26.938Z,9.75
2018-06-14T21:36:57.413Z,9.15
2018-06-14T21:39:27.899Z,8.40
2018-06-14T21:41:58.290Z,8.48
2018-06-14T21:44:29.893Z,10.43
2018-06-14T21:47:00.765Z,9.08
2018-06-14T21:49:31.203Z,9.70
2018-06-14T21:52:01.622Z,13.55
2018-06-14T21:54:32.107Z,9.88
2018-06-14T21:57:02.560Z,8.48
2018-06-14T21:59:33.328Z,10.00
2018-06-14T22:02:03.838Z,10.25
2018-06-14T22:04:34.363Z,9.25
2018-06-14T22:07:04.797Z,12.60
2018-06-14T22:09:35.341Z,15.23
2018-06-14T22:12:05.775Z,8.93
2018-06-14T22:14:36.290Z,9.50
2018-06-14T22:17:06.810Z,11.30
2018-06-14T22:19:37.317Z,8.80
2018-06-14T22:22:08.010Z,13.32
2018-06-14T22:24:38.474Z,10.08
2018-06-14T22:27:09.463Z,9.83
2018-06-14T22:29:39.897Z,9.08
2018-06-14T22:32:10.405Z,10.03
2018-06-14T22:34:57.703Z,10.40
2018-06-14T22:37:28.153Z,19.32
2018-06-14T22:39:58.659Z,8.98
2018-06-14T22:42:29.726Z,9.10
2018-06-14T22:45:00.253Z,10.88
2018-06-14T22:47:30.411Z,9.28
2018-06-14T22:50:00.821Z,9.70
2018-06-14T22:53:05.077Z,10.15
2018-06-14T22:55:35.662Z,10.55
2018-06-14T22:58:06.197Z,10.00
2018-06-14T23:01:33.660Z,8.33
2018-06-14T23:04:04.115Z,12.37
2018-06-14T23:06:36.985Z,12.70
2018-06-14T23:10:28.027Z,10.10
2018-06-14T23:12:58.445Z,8.78
2018-06-14T23:15:29.061Z,9.90
2018-06-14T23:18:00.336Z,9.93
2018-06-14T23:20:32.141Z,11.48
2018-06-14T23:23:03.156Z,12.28
2018-06-14T23:25:34.493Z,10.30
2018-06-14T23:28:05.339Z,9.93
2018-06-14T23:30:35.987Z,10.43
2018-06-14T23:33:06.396Z,9.98
2018-06-14T23:35:36.911Z,10.43
2018-06-14T23:38:07.386Z,12.33
2018-06-14T23:40:37.827Z,12.65
2018-06-14T23:43:08.359Z,16.05
2018-06-14T23:45:38.811Z,10.40
2018-06-14T23:48:09.359Z,9.98
2018-06-14T23:50:39.885Z,9.45
2018-06-14T23:53:10.368Z,11.48
2018-06-14T23:55:40.929Z,9.53
2018-06-14T23:58:12.299Z,11.85
